Time;durP1;ratioP1;P1;durP2;ratioP2;P2;SDS_P1;SDS_P2;PMS_P1;PMS_P2;Temp;Humidity;BMP_temperature;BMP_pressure;BME280_temperature;BME280_humidity;BME280_pressure;Samples;Min_cycle;Max_cycle;Signal;HPM_P1;HPM_P2
2021/05/21 00:00:36;;;;;;;14.27;13.77;;;14.20;91.40;;;;;;4993847;28;20506;-67
2021/05/21 00:03:02;;;;;;;13.77;13.17;;;14.20;91.80;;;;;;4993929;28;20451;-67
2021/05/21 00:05:29;;;;;;;13.90;13.40;;;14.10;92.10;;;;;;4993892;28;20862;-67
2021/05/21 00:07:55;;;;;;;13.57;13.10;;;14.10;92.30;;;;;;4993818;28;20447;-67
2021/05/21 00:10:22;;;;;;;13.40;12.90;;;14.10;92.50;;;;;;4993544;28;20446;-67
2021/05/21 00:12:48;;;;;;;13.73;13.23;;;14.10;92.90;;;;;;4993757;28;20450;-67
2021/05/21 00:15:15;;;;;;;13.30;12.80;;;14.10;93.20;;;;;;4993890;28;20497;-67
2021/05/21 00:17:41;;;;;;;13.53;13.13;;;14.10;93.40;;;;;;4993635;28;20446;-68
2021/05/21 00:20:09;;;;;;;13.53;12.93;;;14.00;93.70;;;;;;4993499;28;20713;-68
2021/05/21 00:22:36;;;;;;;13.07;12.67;;;14.00;94.20;;;;;;4993796;28;20450;-67
2021/05/21 00:25:03;;;;;;;13.07;12.60;;;14.00;94.20;;;;;;4993587;28;20439;-67
2021/05/21 00:27:29;;;;;;;13.57;13.10;;;14.00;94.20;;;;;;4993572;28;20443;-66
2021/05/21 00:29:55;;;;;;;13.30;12.80;;;13.90;94.40;;;;;;4993393;28;20489;-67
2021/05/21 00:32:21;;;;;;;14.07;13.37;;;13.90;94.80;;;;;;4993391;28;20443;-67
2021/05/21 00:34:47;;;;;;;13.03;12.63;;;13.90;94.90;;;;;;4993320;28;20447;-66
2021/05/21 00:37:14;;;;;;;13.40;13.00;;;13.90;95.10;;;;;;4993328;28;20451;-67
2021/05/21 00:39:41;;;;;;;14.70;13.90;;;13.90;95.50;;;;;;4992863;28;20954;-68
2021/05/21 00:42:08;;;;;;;13.50;13.10;;;14.00;95.40;;;;;;4993148;28;20446;-67
2021/05/21 00:44:34;;;;;;;13.27;12.83;;;14.00;95.50;;;;;;4993138;28;20454;-67
2021/05/21 00:47:00;;;;;;;12.97;12.67;;;14.00;95.60;;;;;;4993094;28;20451;-67
2021/05/21 00:49:27;;;;;;;14.90;14.30;;;14.00;95.60;;;;;;4992953;28;20467;-67
2021/05/21 00:51:53;;;;;;;13.03;12.60;;;14.00;95.70;;;;;;4992917;28;20443;-67
2021/05/21 00:54:20;;;;;;;14.07;13.53;;;14.00;95.80;;;;;;4993019;28;20446;-69
2021/05/21 00:56:47;;;;;;;13.30;12.60;;;14.00;95.90;;;;;;4992962;28;20446;-69
2021/05/21 00:59:15;;;;;;;13.57;13.17;;;14.00;96.20;;;;;;4992031;28;20489;-67
2021/05/21 01:01:42;;;;;;;13.73;13.13;;;14.00;96.30;;;;;;4992615;28;20446;-68
2021/05/21 01:04:08;;;;;;;13.27;12.80;;;14.00;96.40;;;;;;4992883;28;20447;-69
2021/05/21 01:06:34;;;;;;;13.00;12.40;;;13.90;96.70;;;;;;4992858;28;20439;-68
2021/05/21 01:09:01;;;;;;;13.43;13.03;;;13.90;96.70;;;;;;4992574;28;20819;-67
2021/05/21 01:11:27;;;;;;;13.00;12.60;;;13.90;97.00;;;;;;4992491;28;20447;-68
2021/05/21 01:13:54;;;;;;;13.37;12.97;;;13.90;97.10;;;;;;4992687;28;20461;-69
2021/05/21 01:16:20;;;;;;;13.73;12.90;;;13.90;97.20;;;;;;4992625;28;20818;-66
2021/05/21 01:18:47;;;;;;;13.70;13.10;;;13.90;97.30;;;;;;4992273;28;20490;-68
2021/05/21 01:21:14;;;;;;;13.70;13.07;;;13.90;97.40;;;;;;4992343;28;20446;-69
2021/05/21 01:23:40;;;;;;;12.67;12.37;;;13.90;97.50;;;;;;4992528;28;20505;-68
2021/05/21 01:26:06;;;;;;;13.47;13.07;;;13.90;97.30;;;;;;4992488;28;20459;-68
2021/05/21 01:28:32;;;;;;;13.40;12.90;;;13.90;97.50;;;;;;4992385;28;20470;-68
2021/05/21 01:30:59;;;;;;;13.57;13.07;;;13.90;97.50;;;;;;4992315;28;20766;-68
2021/05/21 01:33:25;;;;;;;12.80;12.40;;;14.00;97.60;;;;;;4992316;28;20494;-69
2021/05/21 01:35:53;;;;;;;13.17;12.77;;;13.90;97.70;;;;;;4992340;28;20792;-67
2021/05/21 01:38:21;;;;;;;13.40;12.90;;;13.90;97.70;;;;;;4992227;28;20495;-67
2021/05/21 01:40:49;;;;;;;13.50;13.00;;;13.90;97.80;;;;;;4992119;28;20447;-69
2021/05/21 01:43:16;;;;;;;13.20;12.70;;;14.00;97.90;;;;;;4992335;28;20483;-69
2021/05/21 01:45:43;;;;;;;13.03;12.63;;;13.90;97.90;;;;;;4992242;28;20465;-69
2021/05/21 01:48:11;;;;;;;13.70;13.30;;;13.90;98.10;;;;;;4992192;28;20800;-69
2021/05/21 01:50:37;;;;;;;12.97;12.50;;;13.90;98.10;;;;;;4991996;28;20961;-68
2021/05/21 01:53:04;;;;;;;13.37;12.57;;;13.90;98.40;;;;;;4992046;28;20455;-69
2021/05/21 01:55:31;;;;;;;12.90;12.50;;;13.90;98.40;;;;;;4992157;28;20442;-68
2021/05/21 01:57:57;;;;;;;13.17;12.67;;;13.90;98.40;;;;;;4991990;28;20486;-69
2021/05/21 02:00:23;;;;;;;12.93;12.53;;;13.80;98.50;;;;;;4991820;28;20817;-68
2021/05/21 02:02:49;;;;;;;14.10;13.40;;;13.80;98.80;;;;;;4992035;28;20450;-68
2021/05/21 02:05:16;;;;;;;13.20;12.73;;;13.80;98.90;;;;;;4992150;28;20447;-69
2021/05/21 02:07:42;;;;;;;13.20;12.80;;;13.80;98.90;;;;;;4991935;28;20473;-68
2021/05/21 02:10:10;;;;;;;13.17;12.73;;;13.80;99.10;;;;;;4993767;28;20463;-69
2021/05/21 02:12:41;;;;;;;13.70;13.10;;;13.80;99.30;;;;;;4996032;28;20504;-69
2021/05/21 02:15:09;;;;;;;13.37;12.97;;;13.80;99.20;;;;;;4996133;28;20454;-69
2021/05/21 02:17:35;;;;;;;13.73;13.30;;;13.80;99.30;;;;;;4995926;28;20443;-68
2021/05/21 02:20:03;;;;;;;13.63;13.20;;;13.80;99.50;;;;;;4995473;28;20517;-68
2021/05/21 02:22:31;;;;;;;12.77;12.47;;;13.80;99.70;;;;;;4995746;28;20446;-67
2021/05/21 02:24:59;;;;;;;14.00;13.33;;;13.80;99.50;;;;;;4995861;28;20934;-67
2021/05/21 02:27:26;;;;;;;13.57;13.00;;;13.80;99.60;;;;;;4995749;28;20481;-68
2021/05/21 02:29:54;;;;;;;13.90;13.40;;;13.80;99.50;;;;;;4995562;28;20873;-68
2021/05/21 02:32:20;;;;;;;13.40;13.00;;;13.80;99.70;;;;;;4995614;28;20454;-67
2021/05/21 02:34:46;;;;;;;13.63;13.13;;;13.80;99.90;;;;;;4995742;28;20803;-68
2021/05/21 02:37:12;;;;;;;13.67;13.07;;;13.70;99.80;;;;;;4995539;28;20458;-68
2021/05/21 02:39:39;;;;;;;13.73;13.23;;;13.70;99.90;;;;;;4995299;28;20901;-67
2021/05/21 02:42:06;;;;;;;13.43;12.87;;;13.60;99.90;;;;;;4995389;28;20446;-69
2021/05/21 02:44:32;;;;;;;13.47;13.00;;;13.60;99.90;;;;;;4995524;28;20946;-68
2021/05/21 02:46:59;;;;;;;13.30;12.80;;;13.50;99.90;;;;;;4995429;28;20450;-68
2021/05/21 02:49:25;;;;;;;13.30;12.80;;;13.40;99.90;;;;;;4995221;28;20470;-69
2021/05/21 02:51:53;;;;;;;14.10;13.60;;;13.40;99.90;;;;;;4995077;28;20450;-68
2021/05/21 02:54:19;;;;;;;14.57;13.97;;;13.30;99.90;;;;;;4995341;28;20818;-67
2021/05/21 02:56:46;;;;;;;13.70;13.20;;;13.30;99.90;;;;;;4995190;28;20942;-66
2021/05/21 02:59:12;;;;;;;13.47;12.97;;;13.30;99.90;;;;;;4995116;28;20846;-67
2021/05/21 03:01:39;;;;;;;13.67;13.10;;;13.30;99.90;;;;;;4994973;28;20489;-70
2021/05/21 03:04:06;;;;;;;12.77;12.37;;;13.30;99.90;;;;;;4994964;28;20458;-67
2021/05/21 03:06:32;;;;;;;13.50;13.10;;;13.40;99.90;;;;;;4995162;28;20802;-67
2021/05/21 03:08:58;;;;;;;13.73;13.13;;;13.40;99.90;;;;;;4994968;28;20461;-67
2021/05/21 03:11:24;;;;;;;13.00;12.60;;;13.40;99.90;;;;;;4994751;28;20453;-67
2021/05/21 03:13:51;;;;;;;13.37;12.57;;;13.40;99.90;;;;;;4994827;28;20447;-70
2021/05/21 03:16:17;;;;;;;14.10;13.60;;;13.40;99.90;;;;;;4994970;28;20957;-68
2021/05/21 03:18:43;;;;;;;14.50;13.90;;;13.30;99.90;;;;;;4994592;28;20486;-68
2021/05/21 03:21:10;;;;;;;14.30;13.90;;;13.30;99.90;;;;;;4993776;28;20450;-67
2021/05/21 03:23:36;;;;;;;14.80;14.10;;;13.20;99.90;;;;;;4994686;28;20970;-67
2021/05/21 03:26:03;;;;;;;14.13;13.63;;;13.20;99.90;;;;;;4994612;28;20505;-67
2021/05/21 03:28:29;;;;;;;14.67;14.17;;;13.20;99.90;;;;;;4994611;28;20467;-67
2021/05/21 03:30:55;;;;;;;14.53;14.03;;;13.20;99.90;;;;;;4994460;28;20806;-67
2021/05/21 03:33:21;;;;;;;14.67;14.17;;;13.10;99.90;;;;;;4994611;28;20462;-67
2021/05/21 03:35:47;;;;;;;14.50;14.00;;;13.10;99.90;;;;;;4994564;28;20451;-67
2021/05/21 03:38:14;;;;;;;15.17;14.53;;;13.00;99.90;;;;;;4994385;28;20486;-67
2021/05/21 03:40:42;;;;;;;13.97;13.57;;;12.90;99.90;;;;;;4994127;28;20458;-67
2021/05/21 03:43:09;;;;;;;14.90;14.33;;;12.90;99.90;;;;;;4994237;28;20454;-67
2021/05/21 03:45:36;;;;;;;14.87;14.17;;;12.90;99.90;;;;;;4994366;28;20439;-67
2021/05/21 03:48:03;;;;;;;14.80;14.30;;;12.90;99.90;;;;;;4994222;28;20803;-67
2021/05/21 03:50:29;;;;;;;14.47;13.87;;;12.80;99.90;;;;;;4994039;28;20448;-67
2021/05/21 03:52:55;;;;;;;14.93;14.20;;;12.80;99.90;;;;;;4994278;28;20446;-67
2021/05/21 03:55:23;;;;;;;15.50;14.70;;;12.80;99.90;;;;;;4994299;28;20455;-70
2021/05/21 03:57:49;;;;;;;15.13;14.43;;;12.70;99.90;;;;;;4994032;28;20587;-67
2021/05/21 04:00:18;;;;;;;14.23;13.63;;;12.70;99.90;;;;;;4994030;28;20481;-67
2021/05/21 04:02:45;;;;;;;14.80;14.30;;;12.70;99.90;;;;;;4993951;28;20442;-67
2021/05/21 04:05:12;;;;;;;14.23;13.83;;;12.70;99.90;;;;;;4993978;28;20447;-67
2021/05/21 04:07:38;;;;;;;14.73;14.13;;;12.70;99.90;;;;;;4993991;28;20450;-67
2021/05/21 04:10:05;;;;;;;14.50;14.00;;;12.70;99.90;;;;;;4993526;28;20470;-67
2021/05/21 04:12:32;;;;;;;15.17;14.67;;;12.80;99.90;;;;;;4993793;28;20455;-67
2021/05/21 04:14:58;;;;;;;15.00;14.50;;;12.90;99.90;;;;;;4993729;28;20451;-67
2021/05/21 04:17:25;;;;;;;15.00;14.40;;;13.00;99.90;;;;;;4993681;28;20802;-67
2021/05/21 04:19:51;;;;;;;15.80;14.90;;;13.00;99.90;;;;;;4993279;28;20494;-67
2021/05/21 04:22:17;;;;;;;15.80;15.10;;;13.00;99.90;;;;;;4993506;28;20443;-67
2021/05/21 04:24:44;;;;;;;15.33;14.47;;;13.10;99.90;;;;;;4993606;28;20446;-67
2021/05/21 04:27:11;;;;;;;15.50;14.70;;;13.10;99.90;;;;;;4993496;28;20801;-67
2021/05/21 04:29:38;;;;;;;14.87;14.33;;;13.10;99.90;;;;;;4993495;28;20525;-67
2021/05/21 04:32:06;;;;;;;15.00;14.47;;;13.10;99.90;;;;;;4993084;28;20450;-67
2021/05/21 04:34:32;;;;;;;15.40;14.60;;;13.10;99.90;;;;;;4992512;28;20447;-67
2021/05/21 04:36:58;;;;;;;15.33;14.70;;;13.10;99.90;;;;;;4993273;28;20501;-67
2021/05/21 04:39:25;;;;;;;16.47;15.37;;;13.10;99.90;;;;;;4993233;28;20489;-67
2021/05/21 04:41:51;;;;;;;15.53;14.93;;;13.20;99.90;;;;;;4993047;28;20470;-67
2021/05/21 04:44:18;;;;;;;15.70;14.83;;;13.30;99.90;;;;;;4993161;28;20443;-66
2021/05/21 04:46:45;;;;;;;16.10;15.27;;;13.40;99.90;;;;;;4993066;28;20873;-66
2021/05/21 04:49:11;;;;;;;16.37;15.57;;;13.40;99.90;;;;;;4993151;28;20458;-67
2021/05/21 04:51:37;;;;;;;16.17;15.27;;;13.40;99.90;;;;;;4992878;28;20447;-67
2021/05/21 04:54:04;;;;;;;16.07;15.30;;;13.50;99.90;;;;;;4993001;28;20493;-67
2021/05/21 04:56:30;;;;;;;15.67;15.07;;;13.50;99.90;;;;;;4993009;28;20450;-67
2021/05/21 04:58:57;;;;;;;15.47;14.90;;;13.60;99.90;;;;;;4992716;28;20486;-67
2021/05/21 05:01:24;;;;;;;16.00;15.40;;;13.70;99.90;;;;;;4992708;28;20443;-67
2021/05/21 05:03:51;;;;;;;15.20;14.70;;;13.80;99.90;;;;;;4992752;28;20449;-67
2021/05/21 05:06:17;;;;;;;15.83;15.30;;;13.80;99.90;;;;;;4992810;28;20449;-67
2021/05/21 05:08:43;;;;;;;16.83;16.03;;;13.90;99.90;;;;;;4992552;28;20974;-67
2021/05/21 05:11:09;;;;;;;16.80;15.90;;;13.90;99.90;;;;;;4992359;28;20442;-67
2021/05/21 05:13:35;;;;;;;16.10;15.50;;;13.90;99.90;;;;;;4992730;28;20505;-66
2021/05/21 05:16:01;;;;;;;16.60;15.90;;;13.90;99.90;;;;;;4992478;28;20451;-69
2021/05/21 05:18:28;;;;;;;16.93;16.23;;;13.80;99.90;;;;;;4992846;28;20549;-64
2021/05/21 05:20:55;;;;;;;16.50;15.80;;;13.90;99.90;;;;;;4992361;28;20505;-65
2021/05/21 05:23:21;;;;;;;17.13;16.43;;;14.00;99.90;;;;;;4992399;28;20453;-67
2021/05/21 05:25:48;;;;;;;16.80;15.90;;;14.20;99.90;;;;;;4992492;28;20954;-63
2021/05/21 05:28:16;;;;;;;17.17;16.27;;;14.40;99.90;;;;;;4992453;28;20512;-64
2021/05/21 05:30:42;;;;;;;16.93;16.30;;;14.40;99.90;;;;;;4992063;28;20546;-65
2021/05/21 05:33:11;;;;;;;17.00;16.20;;;14.60;99.90;;;;;;4992302;28;20458;-65
2021/05/21 05:35:37;;;;;;;17.40;16.70;;;14.60;99.90;;;;;;4992356;28;20450;-65
2021/05/21 05:38:04;;;;;;;18.27;17.20;;;14.70;99.90;;;;;;4992097;28;20454;-65
2021/05/21 05:40:32;;;;;;;16.90;16.17;;;14.70;99.90;;;;;;4992086;28;20445;-64
2021/05/21 05:42:59;;;;;;;17.93;17.00;;;14.80;99.90;;;;;;4992195;28;20803;-64
2021/05/21 05:45:25;;;;;;;17.27;16.40;;;14.80;99.90;;;;;;4991750;28;20470;-64
2021/05/21 05:47:51;;;;;;;17.27;16.27;;;14.90;99.90;;;;;;4992102;28;20439;-65
2021/05/21 05:50:17;;;;;;;17.23;16.43;;;14.90;99.90;;;;;;4991828;28;20528;-65
2021/05/21 05:52:44;;;;;;;16.30;15.70;;;14.90;99.90;;;;;;4992035;28;20796;-65
2021/05/21 05:55:11;;;;;;;16.70;16.00;;;14.90;99.90;;;;;;4991975;28;20970;-66
2021/05/21 05:57:38;;;;;;;16.07;15.30;;;14.90;99.60;;;;;;4992177;28;20438;-65
2021/05/21 06:00:05;;;;;;;16.80;15.70;;;15.00;99.90;;;;;;4991776;28;20486;-65
2021/05/21 06:02:31;;;;;;;15.97;15.47;;;15.10;99.90;;;;;;4991829;28;20455;-65
2021/05/21 06:05:02;;;;;;;15.97;15.37;;;15.10;99.60;;;;;;4991991;28;20450;-65
2021/05/21 06:07:28;;;;;;;16.40;15.60;;;15.30;99.40;;;;;;4991951;28;20787;-65
2021/05/21 06:09:54;;;;;;;16.40;15.80;;;15.50;98.90;;;;;;4991865;28;20783;-65
2021/05/21 06:12:21;;;;;;;17.10;15.83;;;15.60;97.90;;;;;;4991545;28;20446;-65
2021/05/21 06:14:47;;;;;;;16.23;15.57;;;15.80;97.80;;;;;;4991787;28;20454;-65
2021/05/21 06:17:17;;;;;;;16.70;16.03;;;15.90;97.30;;;;;;4991896;28;20455;-65
2021/05/21 06:19:43;;;;;;;16.40;15.70;;;15.90;96.80;;;;;;4991550;28;20486;-66
2021/05/21 06:22:09;;;;;;;17.03;16.00;;;15.90;96.80;;;;;;4991390;28;20439;-66
2021/05/21 06:24:38;;;;;;;16.10;15.60;;;15.80;97.10;;;;;;4991821;28;20454;-65
2021/05/21 06:29:52;;;;;;;15.83;15.23;;;16.00;96.70;;;;;;4989706;28;20450;-65
2021/05/21 06:32:18;;;;;;;15.47;14.90;;;15.80;95.90;;;;;;4991379;28;20439;-65
2021/05/21 06:34:44;;;;;;;15.90;15.40;;;15.90;95.80;;;;;;4991642;28;20460;-65
2021/05/21 06:37:10;;;;;;;16.43;15.40;;;16.00;95.20;;;;;;4991801;28;20450;-65
2021/05/21 06:39:37;;;;;;;16.77;15.80;;;16.00;94.60;;;;;;4991376;28;20993;-65
2021/05/21 06:42:03;;;;;;;16.33;15.50;;;16.00;94.30;;;;;;4991501;28;20824;-66
2021/05/21 06:44:29;;;;;;;16.60;15.90;;;16.00;93.90;;;;;;4991493;28;20447;-66
2021/05/21 06:46:58;;;;;;;16.37;15.30;;;16.20;93.40;;;;;;4991763;28;20458;-66
2021/05/21 06:49:24;;;;;;;16.30;15.60;;;16.30;93.50;;;;;;4991479;28;20482;-67
2021/05/21 06:51:50;;;;;;;16.50;15.80;;;16.60;93.20;;;;;;4991339;28;20446;-66
2021/05/21 06:54:18;;;;;;;16.63;15.87;;;16.60;92.10;;;;;;4991513;28;20447;-66
2021/05/21 06:56:44;;;;;;;16.70;16.00;;;16.60;92.10;;;;;;4992817;28;20450;-66
2021/05/21 06:59:10;;;;;;;17.23;16.23;;;16.50;92.40;;;;;;4994888;28;21072;-66
2021/05/21 07:01:36;;;;;;;17.83;17.10;;;16.60;92.90;;;;;;4994903;28;20448;-67
2021/05/21 07:04:04;;;;;;;17.37;16.27;;;16.90;92.40;;;;;;4995152;28;20530;-66
2021/05/21 07:06:30;;;;;;;18.50;17.30;;;16.90;92.00;;;;;;4994965;28;20442;-66
2021/05/21 07:08:56;;;;;;;16.93;16.23;;;16.90;90.80;;;;;;4994891;28;20467;-67
2021/05/21 07:11:22;;;;;;;17.37;16.50;;;17.00;89.20;;;;;;4994734;28;20946;-67
2021/05/21 07:13:48;;;;;;;16.77;16.07;;;17.20;88.70;;;;;;4994671;28;20501;-66
2021/05/21 07:16:14;;;;;;;18.70;17.70;;;17.20;88.30;;;;;;4994748;28;20453;-66
2021/05/21 07:18:40;;;;;;;18.40;17.30;;;17.20;86.10;;;;;;4994556;28;20873;-66
2021/05/21 07:21:07;;;;;;;19.13;17.23;;;17.20;83.80;;;;;;4994681;28;20459;-66
2021/05/21 07:23:34;;;;;;;18.27;17.10;;;17.30;82.80;;;;;;4994741;28;20443;-66
2021/05/21 07:26:00;;;;;;;18.33;17.10;;;17.20;81.40;;;;;;4994634;28;20447;-66
2021/05/21 07:28:26;;;;;;;18.90;17.60;;;17.20;82.40;;;;;;4994343;28;20482;-67
2021/05/21 07:30:53;;;;;;;17.33;16.43;;;17.40;80.10;;;;;;4994249;28;21006;-66
2021/05/21 07:33:19;;;;;;;18.20;16.97;;;17.80;79.10;;;;;;4994444;28;20458;-67
2021/05/21 07:35:45;;;;;;;18.80;17.40;;;17.90;75.20;;;;;;4994374;28;20470;-66
2021/05/21 07:38:12;;;;;;;16.67;15.87;;;17.50;71.30;;;;;;4994160;28;20473;-66
2021/05/21 07:40:39;;;;;;;18.17;16.93;;;17.30;71.60;;;;;;4994198;28;20804;-66
2021/05/21 07:43:05;;;;;;;17.93;16.60;;;17.50;71.90;;;;;;4994268;28;20958;-66
2021/05/21 07:45:32;;;;;;;19.13;17.63;;;17.20;73.20;;;;;;4994196;28;20791;-66
2021/05/21 07:47:58;;;;;;;18.60;17.20;;;17.00;74.20;;;;;;4994074;28;20470;-66
2021/05/21 07:50:24;;;;;;;17.37;16.37;;;16.90;73.60;;;;;;4994015;28;20509;-66
2021/05/21 07:52:50;;;;;;;21.37;19.63;;;16.90;70.70;;;;;;4994217;28;20464;-66
2021/05/21 07:55:17;;;;;;;17.97;16.80;;;16.50;67.70;;;;;;4994108;28;20449;-66
2021/05/21 07:57:43;;;;;;;18.53;17.33;;;16.40;67.80;;;;;;4993978;28;20461;-66
2021/05/21 08:00:11;;;;;;;19.63;18.30;;;16.50;68.50;;;;;;4993617;28;20487;-66
2021/05/21 08:02:38;;;;;;;19.50;18.10;;;16.30;65.40;;;;;;4993898;28;20446;-66
2021/05/21 08:05:05;;;;;;;18.17;17.20;;;16.40;63.60;;;;;;4993932;28;20447;-66
2021/05/21 08:07:32;;;;;;;19.17;17.90;;;16.80;64.50;;;;;;4993634;28;20458;-66
2021/05/21 08:10:00;;;;;;;18.73;17.80;;;17.40;63.70;;;;;;4993649;28;20513;-66
2021/05/21 08:12:27;;;;;;;19.00;18.10;;;17.50;62.90;;;;;;4993483;28;20503;-66
2021/05/21 08:14:54;;;;;;;19.57;17.77;;;17.50;63.00;;;;;;4993786;28;20517;-66
2021/05/21 08:17:20;;;;;;;19.10;17.97;;;17.10;58.80;;;;;;4993864;28;20550;-66
2021/05/21 08:19:46;;;;;;;19.60;17.80;;;16.60;58.50;;;;;;4993434;28;20491;-66
2021/05/21 08:22:13;;;;;;;20.00;18.00;;;16.60;59.10;;;;;;4993576;28;20805;-66
2021/05/21 08:24:39;;;;;;;19.43;18.03;;;16.70;60.50;;;;;;4993900;28;20487;-66
2021/05/21 08:27:06;;;;;;;21.40;19.80;;;17.20;61.50;;;;;;4993573;28;20950;-66
2021/05/21 08:29:33;;;;;;;20.70;18.70;;;17.80;59.30;;;;;;4993327;28;20463;-66
2021/05/21 08:32:01;;;;;;;20.40;18.90;;;18.00;57.10;;;;;;4993302;28;20541;-66
2021/05/21 08:34:27;;;;;;;19.23;18.00;;;18.00;55.80;;;;;;4993316;28;20447;-66
2021/05/21 08:36:54;;;;;;;19.57;18.30;;;18.10;55.70;;;;;;4993221;28;20507;-66
2021/05/21 08:39:21;;;;;;;18.60;17.60;;;18.10;56.80;;;;;;4992979;28;20490;-67
2021/05/21 08:41:50;;;;;;;18.97;17.97;;;17.90;56.20;;;;;;4992997;28;20451;-66
2021/05/21 08:44:18;;;;;;;19.50;18.60;;;17.80;53.70;;;;;;4993143;28;20455;-67
2021/05/21 08:46:45;;;;;;;18.30;16.97;;;17.80;53.00;;;;;;4993151;28;20486;-68
2021/05/21 08:49:12;;;;;;;18.27;17.07;;;17.70;52.30;;;;;;4992794;28;20463;-66
2021/05/21 08:51:38;;;;;;;17.20;16.10;;;17.60;51.40;;;;;;4992711;28;20481;-66
2021/05/21 08:54:07;;;;;;;17.17;16.23;;;17.50;51.20;;;;;;4993139;28;20454;-66
2021/05/21 08:56:33;;;;;;;16.37;15.63;;;17.70;51.70;;;;;;4992920;28;20541;-67
2021/05/21 08:58:59;;;;;;;17.40;16.10;;;17.80;50.50;;;;;;4992636;28;20486;-66
2021/05/21 09:01:27;;;;;;;17.83;16.87;;;17.80;50.30;;;;;;4992597;28;20451;-66
2021/05/21 09:04:01;;;;;;;16.57;15.73;;;17.90;49.80;;;;;;4992848;28;20454;-66
2021/05/21 09:06:28;;;;;;;17.30;16.00;;;17.60;50.00;;;;;;4992665;28;20816;-66
2021/05/21 09:08:55;;;;;;;16.77;15.83;;;17.30;50.20;;;;;;4992617;28;20521;-66
2021/05/21 09:11:30;;;;;;;16.83;15.63;;;17.30;50.00;;;;;;4992490;28;20446;-66
2021/05/21 09:14:07;;;;;;;18.83;17.50;;;17.80;49.70;;;;;;4992537;28;20945;-67
2021/05/21 09:16:35;;;;;;;18.07;16.90;;;18.10;49.10;;;;;;4992586;28;20451;-66
2021/05/21 09:19:07;;;;;;;17.37;16.57;;;18.30;49.30;;;;;;4991716;28;20487;-66
2021/05/21 09:21:56;;;;;;;17.03;16.13;;;18.40;47.70;;;;;;4992455;28;20442;-66
2021/05/21 09:24:26;;;;;;;19.87;18.47;;;18.60;46.20;;;;;;4992518;28;20793;-66
2021/05/21 09:26:53;;;;;;;18.87;17.07;;;18.40;44.30;;;;;;4992464;28;20438;-66
2021/05/21 09:29:35;;;;;;;17.30;15.93;;;18.50;45.30;;;;;;4992311;28;20455;-66
2021/05/21 09:32:14;;;;;;;18.37;16.60;;;18.50;45.70;;;;;;4992070;28;20457;-66
2021/05/21 09:34:41;;;;;;;18.10;16.40;;;19.00;44.70;;;;;;4992325;28;20439;-66
2021/05/21 09:37:19;;;;;;;17.73;16.70;;;19.30;43.80;;;;;;4992144;28;20934;-66
2021/05/21 09:40:07;;;;;;;18.33;17.23;;;19.20;43.20;;;;;;4992005;28;20482;-66
2021/05/21 09:42:54;;;;;;;18.37;17.27;;;19.40;44.30;;;;;;4992030;28;20447;-66
2021/05/21 09:45:27;;;;;;;17.50;16.17;;;19.70;43.80;;;;;;4992230;28;20446;-66
2021/05/21 09:47:58;;;;;;;17.73;16.70;;;19.60;42.00;;;;;;4992203;28;20481;-66
2021/05/21 09:50:38;;;;;;;17.33;16.40;;;19.30;42.80;;;;;;4992084;28;20938;-66
2021/05/21 09:53:08;;;;;;;17.30;16.40;;;19.30;43.40;;;;;;4992109;28;20446;-66
2021/05/21 09:55:37;;;;;;;18.87;17.93;;;18.50;43.50;;;;;;4991975;28;20513;-66
2021/05/21 09:58:04;;;;;;;18.27;17.13;;;18.20;44.20;;;;;;4991927;28;20451;-66
2021/05/21 10:00:30;;;;;;;17.63;16.73;;;18.40;45.60;;;;;;4991562;28;20532;-66
2021/05/21 10:02:57;;;;;;;17.83;16.90;;;18.60;46.00;;;;;;4992042;28;20454;-66
2021/05/21 10:05:23;;;;;;;17.20;16.30;;;18.50;46.00;;;;;;4992040;28;20962;-66
2021/05/21 10:07:52;;;;;;;18.13;17.07;;;18.40;46.30;;;;;;4991961;28;20450;-66
2021/05/21 10:10:21;;;;;;;17.53;16.57;;;18.40;46.50;;;;;;4991795;28;20463;-66
2021/05/21 10:12:48;;;;;;;16.97;16.07;;;18.80;47.30;;;;;;4991610;28;20447;-66
2021/05/21 10:15:15;;;;;;;17.37;16.20;;;19.30;46.00;;;;;;4991969;28;20451;-66
2021/05/21 10:17:44;;;;;;;17.70;16.70;;;19.20;45.30;;;;;;4991784;28;20439;-66
2021/05/21 10:20:13;;;;;;;17.60;16.50;;;19.30;44.60;;;;;;4991679;28;20837;-66
2021/05/21 10:22:41;;;;;;;17.87;16.57;;;19.20;45.20;;;;;;4991613;28;20488;-66
2021/05/21 10:25:18;;;;;;;17.83;16.63;;;19.00;44.60;;;;;;4991653;28;20447;-66
2021/05/21 10:27:47;;;;;;;18.83;17.50;;;19.10;44.50;;;;;;4991913;28;20805;-67
2021/05/21 10:30:16;;;;;;;19.53;17.50;;;19.40;44.30;;;;;;4992226;28;20829;-66
2021/05/21 10:32:42;;;;;;;18.23;17.10;;;20.00;44.60;;;;;;4995461;28;21307;-66
2021/05/21 10:35:17;;;;;;;18.50;17.37;;;20.40;44.60;;;;;;4995587;28;20454;-66
2021/05/21 10:37:45;;;;;;;18.07;16.87;;;20.20;44.40;;;;;;4995532;28;20446;-66
2021/05/21 10:40:14;;;;;;;19.80;18.07;;;20.30;44.30;;;;;;4995301;28;20796;-66
2021/05/21 10:42:46;;;;;;;17.97;16.90;;;20.60;43.30;;;;;;4995142;28;20455;-66
2021/05/21 10:45:15;;;;;;;18.77;17.47;;;21.10;43.70;;;;;;4995541;28;20451;-66
2021/05/21 10:47:45;;;;;;;19.10;17.83;;;21.30;42.00;;;;;;4995347;28;20453;-66
2021/05/21 10:50:18;;;;;;;17.37;16.30;;;20.80;41.70;;;;;;4995191;28;20470;-66
2021/05/21 10:53:11;;;;;;;17.90;16.90;;;20.80;42.10;;;;;;4995059;28;20447;-67
2021/05/21 10:55:52;;;;;;;16.73;16.03;;;21.30;42.30;;;;;;4995279;28;20821;-66
2021/05/21 10:58:20;;;;;;;18.00;17.03;;;20.80;41.20;;;;;;4995263;28;20462;-66
2021/05/21 11:01:19;;;;;;;19.83;18.63;;;20.90;42.50;;;;;;4994676;28;20489;-66
2021/05/21 11:04:02;;;;;;;18.53;17.33;;;20.60;42.30;;;;;;4995069;28;20585;-66
2021/05/21 11:06:30;;;;;;;18.13;16.80;;;20.30;42.80;;;;;;4994826;28;20449;-66
2021/05/21 11:09:01;;;;;;;18.03;16.80;;;20.20;42.60;;;;;;4994973;28;20463;-67
2021/05/21 11:11:46;;;;;;;17.23;16.17;;;20.20;40.00;;;;;;4994640;28;20450;-67
2021/05/21 11:14:28;;;;;;;16.60;15.90;;;19.90;40.10;;;;;;4994711;28;20453;-67
2021/05/21 11:16:57;;;;;;;17.23;16.20;;;19.90;41.10;;;;;;4994857;28;20451;-67
2021/05/21 11:19:25;;;;;;;17.63;16.50;;;20.30;41.60;;;;;;4994944;28;20497;-68
2021/05/21 11:22:04;;;;;;;18.53;17.43;;;20.80;40.50;;;;;;4994320;28;20447;-67
2021/05/21 11:24:41;;;;;;;18.40;17.23;;;21.10;40.20;;;;;;4994641;28;20528;-66
2021/05/21 11:27:11;;;;;;;19.27;18.07;;;21.70;39.20;;;;;;4994684;28;20450;-66
2021/05/21 11:29:42;;;;;;;18.87;17.77;;;22.30;38.10;;;;;;4994626;28;20463;-67
2021/05/21 11:32:08;;;;;;;17.77;16.77;;;23.70;37.80;;;;;;4994333;28;20461;-69
2021/05/21 11:34:34;;;;;;;18.73;17.60;;;24.20;35.90;;;;;;4994470;28;20465;-67
2021/05/21 11:37:02;;;;;;;17.17;16.10;;;24.80;36.00;;;;;;4994560;28;20446;-67
2021/05/21 11:39:28;;;;;;;18.17;17.23;;;24.00;34.70;;;;;;4994099;28;20506;-68
2021/05/21 11:41:54;;;;;;;18.47;17.13;;;26.00;34.30;;;;;;4993633;28;20962;-67
2021/05/21 11:44:26;;;;;;;18.97;18.03;;;26.10;33.00;;;;;;4994223;28;20439;-67
2021/05/21 11:46:58;;;;;;;19.53;18.63;;;27.70;32.40;;;;;;4994308;28;20913;-67
2021/05/21 11:49:24;;;;;;;18.93;18.00;;;30.20;30.90;;;;;;4994208;28;20517;-67
2021/05/21 11:51:59;;;;;;;18.50;17.63;;;29.80;28.90;;;;;;4993844;28;20465;-67
2021/05/21 11:54:27;;;;;;;20.03;18.70;;;30.40;28.50;;;;;;4994163;28;20945;-69
2021/05/21 11:56:54;;;;;;;19.40;18.30;;;27.30;28.30;;;;;;4994199;28;20439;-67
2021/05/21 11:59:22;;;;;;;18.00;17.20;;;30.50;28.20;;;;;;4993906;28;20586;-67
2021/05/21 12:01:51;;;;;;;20.77;19.50;;;28.00;27.70;;;;;;4993934;28;20489;-67
2021/05/21 12:04:17;;;;;;;19.17;18.13;;;28.00;29.80;;;;;;4993993;28;21075;-67
2021/05/21 12:06:47;;;;;;;20.57;19.27;;;26.50;28.90;;;;;;4993687;28;20446;-69
2021/05/21 12:09:13;;;;;;;18.17;17.27;;;24.60;31.30;;;;;;4993575;28;21091;-67
2021/05/21 12:11:40;;;;;;;17.90;17.00;;;23.30;33.30;;;;;;4993507;28;20521;-67
2021/05/21 12:14:08;;;;;;;19.40;18.30;;;23.00;35.00;;;;;;4993710;28;20458;-68
2021/05/21 12:16:36;;;;;;;19.33;18.33;;;23.10;36.00;;;;;;4993748;28;20809;-67
2021/05/21 12:19:04;;;;;;;17.37;16.67;;;27.90;35.00;;;;;;4993301;28;20514;-68
2021/05/21 12:21:32;;;;;;;19.90;18.60;;;26.10;31.70;;;;;;4993275;28;20486;-66
2021/05/21 12:23:59;;;;;;;19.10;17.90;;;24.50;32.60;;;;;;4993400;28;20443;-69
2021/05/21 12:26:27;;;;;;;20.60;19.40;;;27.60;33.20;;;;;;4993633;28;20478;-67
2021/05/21 12:28:54;;;;;;;19.37;18.43;;;31.80;29.40;;;;;;4993424;28;20466;-67
2021/05/21 12:31:26;;;;;;;20.73;19.73;;;34.90;26.90;;;;;;4993226;28;20449;-70
2021/05/21 12:33:52;;;;;;;19.07;18.27;;;37.30;24.50;;;;;;4993354;28;20469;-67